createdAt,value
2019-04-20T00:00:58.574Z,32.10
2019-04-20T00:03:30.984Z,32.20
2019-04-20T00:05:57.488Z,28.07
2019-04-20T00:08:29.606Z,28.62
2019-04-20T00:11:04.201Z,26.20
2019-04-20T00:13:37.844Z,33.90
2019-04-20T00:15:57.817Z,40.52
2019-04-20T00:18:34.520Z,39.25
2019-04-20T00:21:04.778Z,38.63
2019-04-20T00:23:42.015Z,61.18
2019-04-20T00:26:27.329Z,66.67
2019-04-20T00:29:07.529Z,66.80
2019-04-20T00:31:38.729Z,64.60
2019-04-20T00:34:02.691Z,63.58
2019-04-20T00:36:22.194Z,62.38
2019-04-20T00:38:55.938Z,61.25
2019-04-20T00:41:23.032Z,62.80
2019-04-20T00:43:51.646Z,56.75
2019-04-20T00:46:25.844Z,63.95
2019-04-20T00:49:00.858Z,62.83
2019-04-20T00:51:35.390Z,56.35
2019-04-20T00:53:55.240Z,62.35
2019-04-20T00:56:22.372Z,68.47
2019-04-20T00:59:06.546Z,64.10
2019-04-20T01:01:45.055Z,65.60
2019-04-20T01:04:11.563Z,49.50
2019-04-20T01:06:46.731Z,48.40
2019-04-20T01:09:01.374Z,56.13
2019-04-20T01:11:35.462Z,40.52
2019-04-20T01:14:04.651Z,39.27
2019-04-20T01:16:40.089Z,32.53
2019-04-20T01:19:01.119Z,32.42
2019-04-20T01:21:31.810Z,49.93
2019-04-20T01:24:03.566Z,53.35
2019-04-20T01:26:31.217Z,55.12
2019-04-20T01:29:14.290Z,62.65
2019-04-20T01:31:38.319Z,65.92
2019-04-20T01:34:08.238Z,69.70
2019-04-20T01:36:45.849Z,72.32
2019-04-20T01:39:15.998Z,64.37
2019-04-20T01:41:31.437Z,70.97
2019-04-20T01:46:33.361Z,65.97
2019-04-20T01:49:10.493Z,65.32
2019-04-20T01:51:44.326Z,72.08
2019-04-20T01:54:24.939Z,63.33
2019-04-20T01:56:47.618Z,62.15
2019-04-20T01:59:20.003Z,59.95
2019-04-20T02:01:57.710Z,60.95
2019-04-20T02:04:34.578Z,59.77
2019-04-20T02:07:02.941Z,58.15
2019-04-20T02:09:32.576Z,63.95
2019-04-20T02:12:05.037Z,56.55
2019-04-20T02:14:40.498Z,60.40
2019-04-20T02:17:09.626Z,60.63
2019-04-20T02:19:52.204Z,60.38
2019-04-20T02:22:13.551Z,68.00
2019-04-20T02:24:32.017Z,50.55
2019-04-20T02:27:01.999Z,41.65
2019-04-20T02:29:57.036Z,57.65
2019-04-20T02:32:47.941Z,48.75
2019-04-20T02:34:59.435Z,54.63
2019-04-20T02:37:48.947Z,48.28
2019-04-20T02:40:09.099Z,61.98
2019-04-20T02:42:44.674Z,55.33
2019-04-20T02:45:18.860Z,54.67
2019-04-20T02:50:15.289Z,54.38
2019-04-20T02:57:50.363Z,53.08
2019-04-20T03:02:27.445Z,47.88
2019-04-20T03:04:49.141Z,50.98
2019-04-20T03:07:23.197Z,46.28
2019-04-20T03:10:02.546Z,45.60
2019-04-20T03:12:33.456Z,52.85
2019-04-20T03:14:55.274Z,46.20
2019-04-20T03:17:32.708Z,45.70
2019-04-20T03:19:57.381Z,46.18
2019-04-20T03:23:02.396Z,48.68
2019-04-20T03:25:05.121Z,45.67
2019-04-20T03:27:34.355Z,42.30
2019-04-20T03:30:28.689Z,41.35
2019-04-20T03:33:11.798Z,36.88
2019-04-20T03:35:18.251Z,46.30
2019-04-20T03:37:48.608Z,46.30
2019-04-20T03:40:10.287Z,42.55
2019-04-20T03:42:24.928Z,42.15
2019-04-20T03:45:01.798Z,54.08
2019-04-20T03:47:35.086Z,52.85
2019-04-20T03:50:18.612Z,39.60
2019-04-20T03:52:49.668Z,40.55
2019-04-20T03:55:24.375Z,36.20
2019-04-20T03:58:04.578Z,41.42
2019-04-20T04:00:43.310Z,33.42
2019-04-20T04:03:22.831Z,41.65
2019-04-20T04:05:48.156Z,33.88
2019-04-20T04:08:14.969Z,33.45
2019-04-20T04:10:58.496Z,37.75
2019-04-20T04:13:09.643Z,38.25
2019-04-20T04:15:46.761Z,33.02
2019-04-20T04:18:17.747Z,34.73
2019-04-20T04:20:49.992Z,36.42
2019-04-20T04:23:32.629Z,34.08
2019-04-20T04:25:59.200Z,37.88
2019-04-20T04:28:31.400Z,37.45
2019-04-20T04:31:03.593Z,39.67
2019-04-20T04:36:01.145Z,34.08
2019-04-20T04:38:37.656Z,43.13
2019-04-20T04:43:37.015Z,41.45
2019-04-20T04:45:46.961Z,39.05
2019-04-20T04:48:23.225Z,34.27
2019-04-20T04:50:52.759Z,39.18
2019-04-20T04:53:28.877Z,42.98
2019-04-20T04:55:54.687Z,34.13
2019-04-20T04:58:17.286Z,38.05
2019-04-20T05:00:46.724Z,37.93
2019-04-20T05:03:35.106Z,43.23
2019-04-20T05:06:08.777Z,37.93
2019-04-20T05:08:27.301Z,40.00
2019-04-20T05:10:49.965Z,35.58
2019-04-20T05:13:19.826Z,37.10
2019-04-20T05:16:03.595Z,44.38
2019-04-20T05:18:44.957Z,40.40
2019-04-20T05:21:10.636Z,39.88
2019-04-20T05:23:35.477Z,43.38
2019-04-20T05:26:26.459Z,54.13
2019-04-20T05:28:59.425Z,38.50
2019-04-20T05:31:24.450Z,36.03
2019-04-20T05:34:15.746Z,38.42
2019-04-20T05:36:42.672Z,40.95
2019-04-20T05:39:27.196Z,39.67
2019-04-20T05:41:37.360Z,39.10
2019-04-20T05:44:08.779Z,39.23
2019-04-20T05:46:42.525Z,39.45
2019-04-20T05:49:19.379Z,35.50
2019-04-20T05:51:45.967Z,31.55
2019-04-20T05:54:17.917Z,36.88
2019-04-20T05:56:47.717Z,42.17
2019-04-20T05:59:13.877Z,37.23
2019-04-20T06:01:53.257Z,35.08
2019-04-20T06:04:17.447Z,37.20
2019-04-20T06:06:52.076Z,38.25
2019-04-20T06:09:18.235Z,36.70
2019-04-20T06:12:00.690Z,33.85
2019-04-20T06:14:09.120Z,39.00
2019-04-20T06:16:55.794Z,40.17
2019-04-20T06:21:57.681Z,40.58
2019-04-20T06:24:36.242Z,38.67
2019-04-20T06:27:06.281Z,44.60
2019-04-20T06:29:30.997Z,36.83
2019-04-20T06:32:05.453Z,37.75
2019-04-20T06:37:01.059Z,37.93
2019-04-20T06:42:13.368Z,34.83
2019-04-20T06:44:45.786Z,38.95
2019-04-20T06:49:43.746Z,35.40
2019-04-20T06:52:15.381Z,35.50
2019-04-20T06:54:56.530Z,29.72
2019-04-20T06:57:29.176Z,35.43
2019-04-20T07:00:05.819Z,29.72
2019-04-20T07:02:45.687Z,25.62
2019-04-20T07:05:00.812Z,33.60
2019-04-20T07:07:32.205Z,28.83
2019-04-20T07:10:12.377Z,22.73
2019-04-20T07:12:28.652Z,30.30
2019-04-20T07:14:50.975Z,30.27
2019-04-20T07:17:53.388Z,19.77
2019-04-20T07:20:00.299Z,22.67
2019-04-20T07:25:14.025Z,17.30
2019-04-20T07:27:40.482Z,25.40
2019-04-20T07:30:15.003Z,17.05
2019-04-20T07:32:48.339Z,22.17
2019-04-20T07:35:14.419Z,22.00
2019-04-20T07:38:10.426Z,18.30
2019-04-20T07:40:15.132Z,19.10
2019-04-20T07:42:48.021Z,20.62
2019-04-20T07:45:21.806Z,19.00
2019-04-20T07:47:55.290Z,19.40
2019-04-20T07:50:13.284Z,18.73
2019-04-20T07:52:38.697Z,15.58
2019-04-20T07:55:40.531Z,16.00
2019-04-20T07:57:41.939Z,12.88
2019-04-20T08:00:20.082Z,11.75
2019-04-20T08:03:12.840Z,13.03
2019-04-20T08:05:33.663Z,9.85
2019-04-20T08:08:08.418Z,11.05
2019-04-20T08:10:53.669Z,9.68
2019-04-20T08:13:16.199Z,14.33
2019-04-20T08:18:16.642Z,6.90
2019-04-20T08:20:46.352Z,9.98
2019-04-20T08:23:18.580Z,10.78
2019-04-20T08:25:36.030Z,9.68
2019-04-20T08:28:16.791Z,11.08
2019-04-20T08:31:10.382Z,8.53
2019-04-20T08:34:09.731Z,12.55
2019-04-20T08:36:26.921Z,9.15
2019-04-20T08:39:13.816Z,7.37
2019-04-20T08:41:28.644Z,11.73
2019-04-20T08:43:59.043Z,9.70
2019-04-20T08:46:45.583Z,7.85
2019-04-20T08:49:03.247Z,7.22
2019-04-20T08:51:34.617Z,14.58
2019-04-20T08:53:59.373Z,9.80
2019-04-20T08:56:21.920Z,7.53
2019-04-20T08:58:41.272Z,8.33
2019-04-20T09:01:14.190Z,4.62
2019-04-20T09:03:51.249Z,9.25
2019-04-20T09:06:28.343Z,7.62
2019-04-20T09:08:50.325Z,4.30
2019-04-20T09:11:31.178Z,7.67
2019-04-20T09:13:49.619Z,4.45
2019-04-20T09:16:13.154Z,9.60
2019-04-20T09:18:54.708Z,8.70
2019-04-20T09:21:24.275Z,6.28
2019-04-20T09:24:16.227Z,7.87
2019-04-20T09:26:37.724Z,5.80
2019-04-20T09:29:13.738Z,5.95
2019-04-20T09:31:37.632Z,11.43
2019-04-20T09:34:16.124Z,6.60
2019-04-20T09:36:42.013Z,7.03
2019-04-20T09:39:16.486Z,7.50
2019-04-20T09:41:58.932Z,4.90
2019-04-20T09:44:09.329Z,9.88
2019-04-20T09:46:45.301Z,5.60
2019-04-20T09:49:20.710Z,7.08
2019-04-20T09:51:56.334Z,5.05
2019-04-20T09:54:29.999Z,4.17
2019-04-20T09:56:59.284Z,7.17
2019-04-20T09:59:28.359Z,4.83
2019-04-20T10:01:46.793Z,10.80
2019-04-20T10:04:11.153Z,6.45
2019-04-20T10:06:39.783Z,6.20
2019-04-20T10:09:09.688Z,6.28
2019-04-20T10:11:41.762Z,3.67
2019-04-20T10:14:08.688Z,7.83
2019-04-20T10:16:37.924Z,7.50
2019-04-20T10:19:07.877Z,15.40
2019-04-20T10:21:37.878Z,7.35
2019-04-20T10:24:08.437Z,5.92
2019-04-20T10:26:38.581Z,6.67
2019-04-20T10:29:07.869Z,7.67
2019-04-20T10:31:42.937Z,5.55
2019-04-20T10:34:07.468Z,4.35
2019-04-20T10:36:47.802Z,9.60
2019-04-20T10:39:18.520Z,5.85
2019-04-20T10:41:53.567Z,11.35
2019-04-20T10:44:18.643Z,5.15
2019-04-20T10:46:47.506Z,4.67
2019-04-20T10:49:17.415Z,4.15
2019-04-20T10:51:47.554Z,5.62
2019-04-20T10:54:20.439Z,9.00
2019-04-20T10:56:47.820Z,6.57
2019-04-20T10:59:16.341Z,8.95
2019-04-20T11:01:45.691Z,5.62
2019-04-20T11:04:14.770Z,7.00
2019-04-20T11:06:44.741Z,6.33
2019-04-20T11:09:14.398Z,11.25
2019-04-20T11:11:44.115Z,5.83
2019-04-20T11:14:21.162Z,4.80
2019-04-20T11:16:44.790Z,6.47
2019-04-20T11:19:13.532Z,5.62
2019-04-20T11:21:42.415Z,8.13
2019-04-20T11:24:12.142Z,3.98
2019-04-20T11:26:42.261Z,9.13
2019-04-20T11:29:11.081Z,8.65
2019-04-20T11:31:46.760Z,9.95
2019-04-20T11:34:10.223Z,8.78
2019-04-20T11:36:39.513Z,8.95
2019-04-20T11:39:11.257Z,9.43
2019-04-20T11:41:41.356Z,5.10
2019-04-20T11:44:11.587Z,5.12
2019-04-20T11:46:40.699Z,5.50
2019-04-20T11:49:09.755Z,7.37
2019-04-20T11:51:39.437Z,6.83
2019-04-20T11:54:08.439Z,5.47
2019-04-20T11:56:40.814Z,5.03
2019-04-20T11:59:09.307Z,5.28
2019-04-20T12:01:51.921Z,7.12
2019-04-20T12:04:34.000Z,12.40
2019-04-20T12:06:54.845Z,9.45
2019-04-20T12:09:24.616Z,5.28
2019-04-20T12:12:06.985Z,7.10
2019-04-20T12:14:24.918Z,10.08
2019-04-20T12:16:53.621Z,9.63
2019-04-20T12:19:22.894Z,9.48
2019-04-20T12:21:51.742Z,5.78
2019-04-20T12:24:20.573Z,28.02
2019-04-20T12:26:49.158Z,12.93
2019-04-20T12:29:17.718Z,7.12
2019-04-20T12:31:52.259Z,7.83
2019-04-20T12:34:16.386Z,7.62
2019-04-20T12:36:44.967Z,5.45
2019-04-20T12:39:13.536Z,11.78
2019-04-20T12:41:49.840Z,8.55
2019-04-20T12:44:12.315Z,5.05
2019-04-20T12:46:41.518Z,4.37
2019-04-20T12:49:11.538Z,9.48
2019-04-20T12:51:49.939Z,6.22
2019-04-20T12:54:10.870Z,7.15
2019-04-20T12:56:40.448Z,5.50
2019-04-20T12:59:09.673Z,9.83
2019-04-20T13:01:39.579Z,8.88
2019-04-20T13:04:09.412Z,5.22
2019-04-20T13:06:39.171Z,5.90
2019-04-20T13:09:12.544Z,7.00
2019-04-20T13:11:50.357Z,8.55
2019-04-20T13:14:40.154Z,6.17
2019-04-20T13:17:08.767Z,7.62
2019-04-20T13:19:37.451Z,7.67
2019-04-20T13:22:07.342Z,8.60
2019-04-20T13:24:36.972Z,6.83
2019-04-20T13:27:06.798Z,6.25
2019-04-20T13:29:38.141Z,5.72
2019-04-20T13:32:06.061Z,10.23
2019-04-20T13:34:35.791Z,9.95
2019-04-20T13:37:04.726Z,8.28
2019-04-20T13:39:33.359Z,8.88
2019-04-20T13:42:11.437Z,7.87
2019-04-20T13:44:32.676Z,8.38
2019-04-20T13:47:01.329Z,13.03
2019-04-20T13:49:31.169Z,10.78
2019-04-20T13:52:00.052Z,8.48
2019-04-20T13:54:29.854Z,8.93
2019-04-20T13:57:00.628Z,7.33
2019-04-20T13:59:35.199Z,9.43
2019-04-20T14:02:22.725Z,12.73
2019-04-20T14:04:54.959Z,11.33
2019-04-20T14:07:24.860Z,17.37
2019-04-20T14:09:53.556Z,15.38
2019-04-20T14:12:29.860Z,12.40
2019-04-20T14:14:53.132Z,11.73
2019-04-20T14:17:23.290Z,18.07
2019-04-20T14:19:53.086Z,6.72
2019-04-20T14:22:22.974Z,9.20
2019-04-20T14:24:53.112Z,6.50
2019-04-20T14:27:22.104Z,9.95
2019-04-20T14:29:50.891Z,11.35
2019-04-20T14:32:20.996Z,9.10
2019-04-20T14:34:51.100Z,24.02
2019-04-20T14:37:20.709Z,31.75
2019-04-20T14:39:50.307Z,14.90
2019-04-20T14:42:30.466Z,10.82
2019-04-20T14:44:50.100Z,12.40
2019-04-20T14:47:19.328Z,11.83
2019-04-20T14:49:48.624Z,9.75
2019-04-20T14:52:17.630Z,10.18
2019-04-20T14:54:47.671Z,11.73
2019-04-20T14:57:17.256Z,7.83
2019-04-20T14:59:47.542Z,11.20
2019-04-20T15:02:17.531Z,9.13
2019-04-20T15:04:47.355Z,8.98
2019-04-20T15:07:16.491Z,6.20
2019-04-20T15:09:45.000Z,10.72
2019-04-20T15:12:14.800Z,8.45
2019-04-20T15:14:44.934Z,8.50
2019-04-20T15:17:15.526Z,7.97
2019-04-20T15:19:51.840Z,6.00
2019-04-20T15:22:31.703Z,17.17
2019-04-20T15:25:00.673Z,6.65
2019-04-20T15:27:30.320Z,10.98
2019-04-20T15:30:00.289Z,13.83
2019-04-20T15:32:29.234Z,7.08
2019-04-20T15:34:57.764Z,9.33
2019-04-20T15:37:26.651Z,4.30
2019-04-20T15:39:55.340Z,5.55
2019-04-20T15:42:25.375Z,6.72
2019-04-20T15:44:55.459Z,20.88
2019-04-20T15:47:25.713Z,6.67
2019-04-20T15:49:55.836Z,10.85
2019-04-20T15:52:28.817Z,7.45
2019-04-20T15:54:55.929Z,14.58
2019-04-20T15:57:27.672Z,9.73
2019-04-20T15:59:56.179Z,10.50
2019-04-20T16:02:33.622Z,12.90
2019-04-20T16:05:04.157Z,9.53
2019-04-20T16:07:40.718Z,9.13
2019-04-20T16:10:05.346Z,15.10
2019-04-20T16:12:35.176Z,11.93
2019-04-20T16:15:05.370Z,11.93
2019-04-20T16:17:39.172Z,6.92
2019-04-20T16:20:09.115Z,4.67
2019-04-20T16:22:36.576Z,4.90
2019-04-20T16:25:09.611Z,7.22
2019-04-20T16:27:38.292Z,13.32
2019-04-20T16:30:09.477Z,5.30
2019-04-20T16:32:38.540Z,10.55
2019-04-20T16:35:08.720Z,6.40
2019-04-20T16:37:38.382Z,7.22
2019-04-20T16:40:09.799Z,9.30
2019-04-20T16:42:40.938Z,4.80
2019-04-20T16:45:09.596Z,10.60
2019-04-20T16:47:38.227Z,10.15
2019-04-20T16:50:08.852Z,7.33
2019-04-20T16:52:37.427Z,17.40
2019-04-20T16:55:06.530Z,54.93
2019-04-20T16:57:35.548Z,9.40
2019-04-20T17:00:07.380Z,6.40
2019-04-20T17:02:36.310Z,9.15
2019-04-20T17:05:05.521Z,5.55
2019-04-20T17:07:37.163Z,5.00
2019-04-20T17:10:09.655Z,7.90
2019-04-20T17:12:39.796Z,6.58
2019-04-20T17:15:09.820Z,7.95
2019-04-20T17:17:39.920Z,12.40
2019-04-20T17:20:11.356Z,6.55
2019-04-20T17:22:40.293Z,5.42
2019-04-20T17:25:10.239Z,9.13
2019-04-20T17:27:41.267Z,10.80
2019-04-20T17:30:26.665Z,13.15
2019-04-20T17:33:06.163Z,16.62
2019-04-20T17:35:47.338Z,23.40
2019-04-20T17:38:06.769Z,16.37
2019-04-20T17:40:59.118Z,14.25
2019-04-20T17:43:19.139Z,17.30
2019-04-20T17:45:43.217Z,12.45
2019-04-20T17:48:18.778Z,22.05
2019-04-20T17:51:01.406Z,46.45
2019-04-20T17:53:27.402Z,23.67
2019-04-20T17:55:53.455Z,17.60
2019-04-20T17:58:27.994Z,16.62
2019-04-20T18:00:58.540Z,13.43
2019-04-20T18:04:03.559Z,12.53
2019-04-20T18:06:21.523Z,21.02
2019-04-20T18:08:50.599Z,14.93
2019-04-20T18:11:10.998Z,14.35
2019-04-20T18:13:34.374Z,12.05
2019-04-20T18:16:29.642Z,12.88
2019-04-20T18:19:02.034Z,14.00
2019-04-20T18:21:33.053Z,12.07
2019-04-20T18:24:05.267Z,12.73
2019-04-20T18:26:49.442Z,14.15
2019-04-20T18:29:20.126Z,14.60
2019-04-20T18:31:35.404Z,18.80
2019-04-20T18:34:14.413Z,27.17
2019-04-20T18:36:42.927Z,17.87
2019-04-20T18:39:13.200Z,20.55
2019-04-20T18:41:45.570Z,19.52
2019-04-20T18:44:10.775Z,23.07
2019-04-20T18:47:07.026Z,27.48
2019-04-20T18:49:27.293Z,26.05
2019-04-20T18:51:41.771Z,28.70
2019-04-20T18:54:17.475Z,25.92
2019-04-20T18:56:46.818Z,20.25
2019-04-20T18:59:11.492Z,19.02
2019-04-20T19:01:43.163Z,25.15
2019-04-20T19:04:10.376Z,26.42
2019-04-20T19:06:39.035Z,30.82
2019-04-20T19:09:09.210Z,25.88
2019-04-20T19:11:43.147Z,26.20
2019-04-20T19:14:31.546Z,25.52
2019-04-20T19:17:16.725Z,31.55
2019-04-20T19:19:43.382Z,35.43
2019-04-20T19:22:08.357Z,37.20
2019-04-20T19:24:38.609Z,30.48
2019-04-20T19:27:12.056Z,34.35
2019-04-20T19:29:47.264Z,41.40
2019-04-20T19:32:23.852Z,32.40
2019-04-20T19:34:52.623Z,35.23
2019-04-20T19:37:15.591Z,38.85
2019-04-20T19:39:56.603Z,47.45
2019-04-20T19:42:27.613Z,44.08
2019-04-20T19:44:55.679Z,41.42
2019-04-20T19:47:28.429Z,35.48
2019-04-20T19:49:47.886Z,37.48
2019-04-20T19:52:50.441Z,33.05
2019-04-20T19:54:56.846Z,30.37
2019-04-20T19:57:32.223Z,30.80
2019-04-20T19:59:46.220Z,26.97
2019-04-20T20:02:11.864Z,27.65
2019-04-20T20:04:48.442Z,31.42
2019-04-20T20:07:18.757Z,32.40
2019-04-20T20:09:49.788Z,34.38
2019-04-20T20:12:14.513Z,30.15
2019-04-20T20:14:45.816Z,26.02
2019-04-20T20:17:32.850Z,27.45
2019-04-20T20:20:08.795Z,27.20
2019-04-20T20:22:21.718Z,29.20
2019-04-20T20:24:43.164Z,30.77
2019-04-20T20:27:20.704Z,30.23
2019-04-20T20:29:57.116Z,34.65
2019-04-20T20:32:23.410Z,32.35
2019-04-20T20:34:45.458Z,29.60
2019-04-20T20:37:23.384Z,41.33
2019-04-20T20:39:53.576Z,54.67
2019-04-20T20:42:28.308Z,58.98
2019-04-20T20:44:52.678Z,64.70
2019-04-20T20:47:38.275Z,63.87
2019-04-20T20:50:08.245Z,52.43
2019-04-20T20:52:32.289Z,53.02
2019-04-20T20:54:53.989Z,61.13
2019-04-20T20:57:21.841Z,49.00
2019-04-20T20:59:54.386Z,45.08
2019-04-20T21:02:24.069Z,45.75
2019-04-20T21:04:45.923Z,51.13
2019-04-20T21:07:14.702Z,46.98
2019-04-20T21:09:43.404Z,43.20
2019-04-20T21:12:16.203Z,44.63
2019-04-20T21:14:43.537Z,44.25
2019-04-20T21:17:17.903Z,47.25
2019-04-20T21:19:57.940Z,41.90
2019-04-20T21:22:19.208Z,51.98
2019-04-20T21:24:47.049Z,51.73
2019-04-20T21:27:18.199Z,39.08
2019-04-20T21:29:51.534Z,40.60
2019-04-20T21:32:18.064Z,44.77
2019-04-20T21:34:53.327Z,36.50
2019-04-20T21:37:20.081Z,35.92
2019-04-20T21:39:52.272Z,39.15
2019-04-20T21:42:21.258Z,41.60
2019-04-20T21:44:50.072Z,34.67
2019-04-20T21:47:24.747Z,44.25
2019-04-20T21:49:58.078Z,76.82
2019-04-20T21:52:24.839Z,46.33
2019-04-20T21:54:48.149Z,42.85
2019-04-20T21:57:18.134Z,47.83
2019-04-20T21:59:50.429Z,43.35
2019-04-20T22:02:21.650Z,45.43
2019-04-20T22:04:49.254Z,42.58
2019-04-20T22:07:18.531Z,49.65
2019-04-20T22:09:52.790Z,38.25
2019-04-20T22:12:18.131Z,43.08
2019-04-20T22:14:48.667Z,30.95
2019-04-20T22:17:24.592Z,31.90
2019-04-20T22:20:02.548Z,32.50
2019-04-20T22:22:34.924Z,29.80
2019-04-20T22:25:02.596Z,36.60
2019-04-20T22:27:23.663Z,33.90
2019-04-20T22:29:48.195Z,36.58
2019-04-20T22:32:20.366Z,36.45
2019-04-20T22:34:55.915Z,44.98
2019-04-20T22:37:26.231Z,41.55
2019-04-20T22:39:54.454Z,45.10
2019-04-20T22:42:21.712Z,37.70
2019-04-20T22:44:57.602Z,42.40
2019-04-20T22:47:25.468Z,38.05
2019-04-20T22:50:12.566Z,35.68
2019-04-20T22:52:34.768Z,34.75
2019-04-20T22:55:11.727Z,35.30
2019-04-20T22:57:36.185Z,38.15
2019-04-20T23:00:01.885Z,36.30
2019-04-20T23:02:23.629Z,32.45
2019-04-20T23:04:53.229Z,32.08
2019-04-20T23:07:23.029Z,26.20
2019-04-20T23:09:54.979Z,28.30
2019-04-20T23:12:24.855Z,28.87
2019-04-20T23:14:52.407Z,26.12
2019-04-20T23:17:27.196Z,23.85
2019-04-20T23:19:56.195Z,27.35
2019-04-20T23:22:23.098Z,28.02
2019-04-20T23:24:53.327Z,27.82
2019-04-20T23:27:26.316Z,26.62
2019-04-20T23:29:53.258Z,28.80
2019-04-20T23:32:25.122Z,28.50
2019-04-20T23:34:57.725Z,29.60
2019-04-20T23:37:31.019Z,25.60
2019-04-20T23:39:54.459Z,29.02
2019-04-20T23:42:28.038Z,28.90
2019-04-20T23:45:14.776Z,31.87
2019-04-20T23:48:04.336Z,31.50
2019-04-20T23:50:46.532Z,32.17
2019-04-20T23:53:19.876Z,25.80
2019-04-20T23:55:31.914Z,31.23
2019-04-20T23:58:04.977Z,28.80
